Wetterdaten: aktuell Dienstag, 20.08.2019 15:05
Datum Zeit Temp. A. GH5 cm GH Feuchte A. Luftdruck Regen Wind Richtung Richtung Windben
20.08.2019 15:05 29,5 C 32,3 C 32,2 C 58 % 1018,4 hPa 0,0 mm 6,0 km/h O-SO 112 7,1 km/h
20.08.2019 14:05 28,4 C 32,0 C 34,4 C 59 % 1018,9 hPa 0,0 mm 3,9 km/h N-NO 22 3,7 km/h
20.08.2019 13:05 28,8 C 37,5 C 38,4 C 58 % 1019,1 hPa 0,0 mm 4,1 km/h N 360 6,0 km/h
20.08.2019 12:05 27,5 C 36,6 C 37,6 C 61 % 1019,4 hPa 0,0 mm 3,9 km/h N-NO 22 9,8 km/h
20.08.2019 11:05 27,1 C 36,3 C 36,0 C 64 % 1019,2 hPa 0,0 mm 1,7 km/h W-SW 247 0,0 km/h
20.08.2019 10:05 25,0 C 32,1 C 20,0 C 72 % 1019,2 hPa 0,0 mm 1,0 km/h W 270 3,3 km/h
20.08.2019 09:05 22,2 C 28,0 C 20,0 C 86 % 1018,8 hPa 0,0 mm 1,2 km/h S-SO 157 0,0 km/h
20.08.2019 08:05 19,7 C 24,3 C 20,0 C 92 % 1018,4 hPa 0,0 mm 0,4 km/h O-NO 67 2,1 km/h
20.08.2019 07:05 18,5 C 21,4 C 20,0 C 92 % 1018,1 hPa 0,0 mm 0,2 km/h O-SO 112 0,0 km/h
20.08.2019 06:05 18,4 C 20,6 C 20,0 C 92 % 1018,0 hPa 0,0 mm 0,0 km/h O-NO 67 0,0 km/h
20.08.2019 05:05 18,3 C 20,6 C 20,0 C 91 % 1017,9 hPa 0,0 mm 0,0 km/h S-SO 157 0,0 km/h
20.08.2019 04:05 18,9 C 21,0 C 20,0 C 91 % 1017,8 hPa 0,0 mm 0,0 km/h S-SO 157 0,0 km/h
20.08.2019 03:05 19,4 C 21,6 C 20,0 C 91 % 1017,6 hPa 0,0 mm 0,0 km/h O-SO 112 0,0 km/h
20.08.2019 02:05 19,7 C 22,1 C 20,0 C 91 % 1017,5 hPa 0,0 mm 1,2 km/h S-SO 157 2,7 km/h
20.08.2019 01:05 19,8 C 22,4 C 20,0 C 90 % 1017,8 hPa 0,0 mm 1,0 km/h NW 315 4,1 km/h
20.08.2019 00:05 19,9 C 22,3 C 20,5 C 89 % 1017,6 hPa 0,0 mm 1,7 km/h SW 225 4,2 km/h
19.08.2019 23:05 20,3 C 22,6 C 20,9 C 87 % 1017,9 hPa 9,4 mm 4,2 km/h O-NO 67 0,0 km/h
19.08.2019 22:05 21,8 C 23,7 C 22,5 C 80 % 1019,1 hPa 2,4 mm 10,4 km/h N-NW 337 7,7 km/h
19.08.2019 21:05 24,3 C 25,3 C 23,8 C 63 % 1017,2 hPa 0,0 mm 0,2 km/h W 270 0,0 km/h
19.08.2019 20:05 25,6 C 26,2 C 25,4 C 59 % 1017,0 hPa 0,0 mm 0,0 km/h S 180 0,0 km/h
19.08.2019 19:05 27,9 C 28,7 C 31,2 C 53 % 1016,1 hPa 0,0 mm 4,4 km/h N-NO 22 5,8 km/h
19.08.2019 18:05 28,9 C 30,1 C 33,0 C 51 % 1015,9 hPa 0,0 mm 5,6 km/h O-NO 67 6,6 km/h
19.08.2019 17:05 30,1 C 30,4 C 32,2 C 47 % 1016,0 hPa 0,0 mm 5,0 km/h N 360 7,3 km/h
19.08.2019 16:05 31,1 C 30,9 C 32,1 C 44 % 1016,1 hPa 0,0 mm 5,0 km/h NO 45 8,1 km/h
19.08.2019 16:00 30,9 C 30,9 C 32,1 C 47 % 1016,1 hPa 0,0 mm 7,7 km/h O-SO 112 7,9 km/h
_ Min-Zeit 05:20 05:10 00:10 16:05 17:20 - 19:35 - - 19:25
Minimum _ 18,2 C 20,4 C 20,0 C 44 % 1015,8 hPa - 0,0 km/h - - 0,0 km/h
_ Max-Zeit 16:05 12:45 12:55 05:50 09:20 22:20 22:05 - - 14:25
Maximum _ 31,1 C 40,8 C 38,9 C 92 % 1019,5 hPa 2,4 mm 10,4 km/h
N-NW
- - 17,8 km/h
NO
Durchschnitt _ 24,2 C 27,2 C 26,1 C 72 % 1017,7 hPa #11,8 mm 2,7 km/h N-NO - 3,4 km/h